createdAt,value
2022-09-15T00:00:16.538Z,11.54
2022-09-15T00:03:22.143Z,11.53
2022-09-15T00:06:25.809Z,11.48
2022-09-15T00:09:31.223Z,11.48
2022-09-15T00:12:35.707Z,11.48
2022-09-15T00:15:39.382Z,11.46
2022-09-15T00:18:43.795Z,11.42
2022-09-15T00:21:47.573Z,11.41
2022-09-15T00:24:52.915Z,11.40
2022-09-15T00:27:56.727Z,11.38
2022-09-15T00:31:00.339Z,11.37
2022-09-15T00:34:05.103Z,11.35
2022-09-15T00:37:08.927Z,11.32
2022-09-15T00:40:13.959Z,11.37
2022-09-15T00:43:20.328Z,11.36
2022-09-15T00:46:28.761Z,11.35
2022-09-15T00:49:36.818Z,11.37
2022-09-15T00:52:48.072Z,11.39
2022-09-15T00:55:54.164Z,11.44
2022-09-15T00:59:04.475Z,11.49
2022-09-15T01:02:17.555Z,11.54
2022-09-15T01:05:25.120Z,11.59
2022-09-15T01:08:40.792Z,11.67
2022-09-15T01:11:45.710Z,11.76
2022-09-15T01:14:49.286Z,11.81
2022-09-15T01:18:13.789Z,11.86
2022-09-15T01:21:32.143Z,11.80
2022-09-15T01:24:47.073Z,11.87
2022-09-15T01:28:34.800Z,11.94
2022-09-15T01:32:01.052Z,11.91
2022-09-15T01:35:22.191Z,11.94
2022-09-15T01:38:40.818Z,11.95
2022-09-15T01:41:54.199Z,11.93
2022-09-15T01:45:05.254Z,11.92
2022-09-15T01:48:11.959Z,11.91
2022-09-15T01:51:16.872Z,11.93
2022-09-15T01:54:26.266Z,11.93
2022-09-15T01:57:30.187Z,11.93
2022-09-15T02:00:38.999Z,11.92
2022-09-15T02:03:54.919Z,11.94
2022-09-15T02:07:07.457Z,11.95
2022-09-15T02:10:22.427Z,11.96
2022-09-15T02:13:38.216Z,11.98
2022-09-15T02:16:49.993Z,12.05
2022-09-15T02:20:04.607Z,12.05
2022-09-15T02:23:18.846Z,12.07
2022-09-15T02:26:28.229Z,12.07
2022-09-15T02:29:36.441Z,12.07
2022-09-15T02:32:48.630Z,12.07
2022-09-15T02:35:54.460Z,12.06
2022-09-15T02:39:10.399Z,12.08
2022-09-15T02:42:14.070Z,12.11
2022-09-15T02:45:17.635Z,12.10
2022-09-15T02:48:21.289Z,12.17
2022-09-15T02:51:26.455Z,12.15
2022-09-15T02:54:30.091Z,12.17
2022-09-15T02:57:33.655Z,12.17
2022-09-15T03:00:38.934Z,12.22
2022-09-15T03:03:43.955Z,12.24
2022-09-15T03:06:48.879Z,12.21
2022-09-15T03:09:52.452Z,12.23
2022-09-15T03:12:56.585Z,12.21
2022-09-15T03:16:00.183Z,12.20
2022-09-15T03:19:04.280Z,12.21
2022-09-15T03:22:09.545Z,12.20
2022-09-15T03:25:13.506Z,12.17
2022-09-15T03:28:17.051Z,12.17
2022-09-15T03:31:20.931Z,12.15
2022-09-15T03:34:24.751Z,12.12
2022-09-15T03:37:29.972Z,12.12
2022-09-15T03:40:33.810Z,12.13
2022-09-15T03:43:38.862Z,12.13
2022-09-15T03:46:42.415Z,12.11
2022-09-15T03:49:46.035Z,12.14
2022-09-15T03:52:53.563Z,12.11
2022-09-15T03:56:10.687Z,12.11
2022-09-15T03:59:14.291Z,12.15
2022-09-15T04:02:17.924Z,12.15
2022-09-15T04:05:21.836Z,12.17
2022-09-15T04:08:26.918Z,12.19
2022-09-15T04:11:31.335Z,12.22
2022-09-15T04:14:34.919Z,12.26
2022-09-15T04:17:38.731Z,12.29
2022-09-15T04:20:42.542Z,12.29
2022-09-15T04:23:49.375Z,12.27
2022-09-15T04:26:53.123Z,12.27
2022-09-15T04:29:56.816Z,12.27
2022-09-15T04:33:00.446Z,12.27
2022-09-15T04:36:06.680Z,12.28
2022-09-15T04:39:12.837Z,12.30
2022-09-15T04:42:16.876Z,12.29
2022-09-15T04:45:20.475Z,12.35
2022-09-15T04:48:25.313Z,12.30
2022-09-15T04:51:29.026Z,12.30
2022-09-15T04:54:35.809Z,12.33
2022-09-15T04:57:39.386Z,12.28
2022-09-15T05:00:44.305Z,12.27
2022-09-15T05:03:48.911Z,12.25
2022-09-15T05:06:52.749Z,12.24
2022-09-15T05:09:57.722Z,12.26
2022-09-15T05:13:01.291Z,12.26
2022-09-15T05:16:12.021Z,12.29
2022-09-15T05:19:15.762Z,12.30
2022-09-15T05:22:19.341Z,12.33
2022-09-15T05:25:24.379Z,12.38
2022-09-15T05:28:29.479Z,12.42
2022-09-15T05:31:35.296Z,12.43
2022-09-15T05:34:38.977Z,12.46
2022-09-15T05:37:42.539Z,12.49
2022-09-15T05:40:47.806Z,12.53
2022-09-15T05:43:52.494Z,12.56
2022-09-15T05:46:56.185Z,12.58
2022-09-15T05:49:59.838Z,12.67
2022-09-15T05:53:03.551Z,12.69
2022-09-15T05:56:13.285Z,12.70
2022-09-15T05:59:17.164Z,12.72
2022-09-15T06:02:20.799Z,12.79
2022-09-15T06:05:24.447Z,12.90
2022-09-15T06:08:32.359Z,13.01
2022-09-15T06:11:37.348Z,13.04
2022-09-15T06:14:43.223Z,13.02
2022-09-15T06:17:46.764Z,13.06
2022-09-15T06:20:50.455Z,13.11
2022-09-15T06:23:56.041Z,13.25
2022-09-15T06:27:01.923Z,13.20
2022-09-15T06:30:06.303Z,13.21
2022-09-15T06:33:09.867Z,13.25
2022-09-15T06:36:14.307Z,13.30
2022-09-15T06:39:17.804Z,13.29
2022-09-15T06:42:22.744Z,13.37
2022-09-15T06:45:26.593Z,13.46
2022-09-15T06:48:30.320Z,13.42
2022-09-15T06:51:35.662Z,13.47
2022-09-15T06:54:39.192Z,13.59
2022-09-15T06:57:44.146Z,13.68
2022-09-15T07:00:47.951Z,13.65
2022-09-15T07:03:52.141Z,13.63
2022-09-15T07:06:55.771Z,13.79
2022-09-15T07:10:01.130Z,13.89
2022-09-15T07:13:06.208Z,14.22
2022-09-15T07:16:13.013Z,14.31
2022-09-15T07:19:16.884Z,14.49
2022-09-15T07:22:20.575Z,14.52
2022-09-15T07:25:24.254Z,14.50
2022-09-15T07:28:29.332Z,14.64
2022-09-15T07:31:36.427Z,14.75
2022-09-15T07:34:40.015Z,14.88
2022-09-15T07:37:44.732Z,14.80
2022-09-15T07:40:49.243Z,14.85
2022-09-15T07:43:56.375Z,15.04
2022-09-15T07:46:59.988Z,14.95
2022-09-15T07:50:03.648Z,15.27
2022-09-15T07:53:07.436Z,15.29
2022-09-15T07:56:11.523Z,15.25
2022-09-15T07:59:16.654Z,15.23
2022-09-15T08:02:22.443Z,15.15
2022-09-15T08:05:28.875Z,15.14
2022-09-15T08:08:32.523Z,14.94
2022-09-15T08:11:36.130Z,14.89
2022-09-15T08:14:41.112Z,15.07
2022-09-15T08:17:44.774Z,14.94
2022-09-15T08:20:48.425Z,15.26
2022-09-15T08:23:53.748Z,15.21
2022-09-15T08:26:57.516Z,15.47
2022-09-15T08:30:02.492Z,15.48
2022-09-15T08:33:06.141Z,15.26
2022-09-15T08:36:12.002Z,15.11
2022-09-15T08:39:15.655Z,15.09
2022-09-15T08:42:24.139Z,14.95
2022-09-15T08:45:38.818Z,14.48
2022-09-15T08:48:50.483Z,14.32
2022-09-15T08:51:59.375Z,14.24
2022-09-15T08:55:14.430Z,14.37
2022-09-15T08:58:21.427Z,14.64
2022-09-15T09:01:50.180Z,14.70
2022-09-15T09:05:16.493Z,14.87
2022-09-15T09:09:16.569Z,14.92
2022-09-15T09:12:42.746Z,14.74
2022-09-15T09:16:05.600Z,14.71
2022-09-15T09:19:58.875Z,14.82
2022-09-15T09:23:08.978Z,14.89
2022-09-15T09:26:15.733Z,15.04
2022-09-15T09:29:21.887Z,15.03
2022-09-15T09:32:33.686Z,14.92
2022-09-15T09:35:46.990Z,14.92
2022-09-15T09:38:51.918Z,14.79
2022-09-15T09:41:56.962Z,14.91
2022-09-15T09:45:00.675Z,14.85
2022-09-15T09:48:16.362Z,15.05
2022-09-15T09:51:38.052Z,15.35
2022-09-15T09:54:42.346Z,15.44
2022-09-15T09:57:45.955Z,15.58
2022-09-15T10:00:50.651Z,15.68
2022-09-15T10:04:18.992Z,15.86
2022-09-15T10:07:27.718Z,16.10
2022-09-15T10:10:32.444Z,16.39
2022-09-15T10:13:37.854Z,16.14
2022-09-15T10:16:42.118Z,16.43
2022-09-15T10:19:49.604Z,16.53
2022-09-15T10:23:05.136Z,16.51
2022-09-15T10:26:35.298Z,16.37
2022-09-15T10:29:40.353Z,16.26
2022-09-15T10:32:44.622Z,16.42
2022-09-15T10:35:48.249Z,16.56
2022-09-15T10:39:08.300Z,16.79
2022-09-15T10:42:24.157Z,16.88
2022-09-15T10:45:35.061Z,17.27
2022-09-15T10:48:59.467Z,16.96
2022-09-15T10:52:18.232Z,16.91
2022-09-15T10:55:52.596Z,16.50
2022-09-15T10:59:33.172Z,16.11
2022-09-15T11:03:27.556Z,15.18
2022-09-15T11:06:41.758Z,14.59
2022-09-15T11:09:52.126Z,14.20
2022-09-15T11:13:09.742Z,13.70
2022-09-15T11:16:30.925Z,13.58
2022-09-15T11:20:15.180Z,13.38
2022-09-15T11:23:28.571Z,13.44
2022-09-15T11:26:40.221Z,13.55
2022-09-15T11:30:04.026Z,13.52
2022-09-15T11:33:19.291Z,13.64
2022-09-15T11:36:32.363Z,13.81
2022-09-15T11:39:47.735Z,13.83
2022-09-15T11:42:58.711Z,13.95
2022-09-15T11:46:12.676Z,14.03
2022-09-15T11:49:22.630Z,14.07
2022-09-15T11:52:56.112Z,14.28
2022-09-15T11:56:14.515Z,14.40
2022-09-15T11:59:28.966Z,14.55
2022-09-15T12:02:45.266Z,14.98
2022-09-15T12:05:57.218Z,14.84
2022-09-15T12:09:05.814Z,15.21
2022-09-15T12:12:16.386Z,15.60
2022-09-15T12:15:27.528Z,15.35
2022-09-15T12:18:43.836Z,15.19
2022-09-15T12:21:59.007Z,15.01
2022-09-15T12:25:12.595Z,14.89
2022-09-15T12:28:42.539Z,14.64
2022-09-15T12:31:47.384Z,14.62
2022-09-15T12:35:02.564Z,14.90
2022-09-15T12:38:06.257Z,15.00
2022-09-15T12:41:13.719Z,15.44
2022-09-15T12:44:33.260Z,15.53
2022-09-15T12:47:41.551Z,15.72
2022-09-15T12:50:57.327Z,15.27
2022-09-15T12:54:07.507Z,14.85
2022-09-15T12:57:26.128Z,14.48
2022-09-15T13:00:54.844Z,14.23
2022-09-15T13:04:29.144Z,14.28
2022-09-15T13:07:55.079Z,14.02
2022-09-15T13:11:05.973Z,14.00
2022-09-15T13:14:26.086Z,13.96
2022-09-15T13:17:31.419Z,14.09
2022-09-15T13:20:42.203Z,14.21
2022-09-15T13:23:52.597Z,14.49
2022-09-15T13:26:57.840Z,14.79
2022-09-15T13:30:22.742Z,14.93
2022-09-15T13:38:08.331Z,15.75
2022-09-15T13:41:57.893Z,15.85
2022-09-15T13:45:35.719Z,15.49
2022-09-15T13:49:08.215Z,14.84
2022-09-15T13:52:28.181Z,14.70
2022-09-15T13:55:38.635Z,14.46
2022-09-15T13:59:06.964Z,14.20
2022-09-15T14:02:12.183Z,13.96
2022-09-15T14:05:17.491Z,14.03
2022-09-15T14:08:26.771Z,14.12
2022-09-15T14:11:34.531Z,14.20
2022-09-15T14:14:44.776Z,14.23
2022-09-15T14:17:48.472Z,14.17
2022-09-15T14:21:04.344Z,14.02
2022-09-15T14:24:22.321Z,14.00
2022-09-15T14:27:29.015Z,13.62
2022-09-15T14:30:34.278Z,13.52
2022-09-15T14:33:41.869Z,13.55
2022-09-15T14:36:45.575Z,13.50
2022-09-15T14:39:54.860Z,13.61
2022-09-15T14:42:59.259Z,13.57
2022-09-15T14:46:14.050Z,13.67
2022-09-15T14:49:17.985Z,13.66
2022-09-15T14:52:29.998Z,13.84
2022-09-15T14:55:39.494Z,13.99
2022-09-15T14:58:49.603Z,14.14
2022-09-15T15:02:05.205Z,14.10
2022-09-15T15:05:18.983Z,14.13
2022-09-15T15:08:35.015Z,14.10
2022-09-15T15:11:42.407Z,13.94
2022-09-15T15:14:46.225Z,13.95
2022-09-15T15:17:54.926Z,13.81
2022-09-15T15:20:59.165Z,13.18
2022-09-15T15:24:09.845Z,13.30
2022-09-15T15:27:42.933Z,13.31
2022-09-15T15:30:48.466Z,13.31
2022-09-15T15:33:59.578Z,13.32
2022-09-15T15:37:17.606Z,13.29
2022-09-15T15:40:23.440Z,13.33
2022-09-15T15:43:28.848Z,13.26
2022-09-15T15:46:55.751Z,13.42
2022-09-15T15:50:13.564Z,13.48
2022-09-15T15:53:18.035Z,13.53
2022-09-15T15:56:26.329Z,13.63
2022-09-15T15:59:29.912Z,13.63
2022-09-15T16:02:33.525Z,13.57
2022-09-15T16:05:40.595Z,13.51
2022-09-15T16:08:46.611Z,13.33
2022-09-15T16:11:50.888Z,13.36
2022-09-15T16:14:54.564Z,13.25
2022-09-15T16:17:58.219Z,13.04
2022-09-15T16:21:03.220Z,12.91
2022-09-15T16:24:11.074Z,12.89
2022-09-15T16:27:18.604Z,12.87
2022-09-15T16:30:22.125Z,12.90
2022-09-15T16:33:26.675Z,12.87
2022-09-15T16:36:36.344Z,12.84
2022-09-15T16:39:39.980Z,12.84
2022-09-15T16:42:43.514Z,12.79
2022-09-15T16:45:47.886Z,12.77
2022-09-15T16:48:51.745Z,12.62
2022-09-15T16:51:56.882Z,12.62
2022-09-15T16:55:00.392Z,12.58
2022-09-15T16:58:04.699Z,12.53
2022-09-15T17:01:12.862Z,12.50
2022-09-15T17:04:19.134Z,12.38
2022-09-15T17:07:24.215Z,12.31
2022-09-15T17:10:28.246Z,12.24
2022-09-15T17:13:35.146Z,12.22
2022-09-15T17:16:39.487Z,12.21
2022-09-15T17:19:43.048Z,12.14
2022-09-15T17:22:49.047Z,12.15
2022-09-15T17:25:57.454Z,12.18
2022-09-15T17:29:01.132Z,12.14
2022-09-15T17:32:04.731Z,12.04
2022-09-15T17:35:20.191Z,11.98
2022-09-15T17:38:25.697Z,11.89
2022-09-15T17:41:34.086Z,11.76
2022-09-15T17:44:37.830Z,11.68
2022-09-15T17:47:41.453Z,11.61
2022-09-15T17:50:46.344Z,11.56
2022-09-15T17:53:51.301Z,11.52
2022-09-15T17:56:54.835Z,11.49
2022-09-15T17:59:58.382Z,11.50
2022-09-15T18:03:05.965Z,11.46
2022-09-15T18:06:11.678Z,11.44
2022-09-15T18:09:17.732Z,11.37
2022-09-15T18:12:21.436Z,11.33
2022-09-15T18:15:28.336Z,11.26
2022-09-15T18:18:31.881Z,11.25
2022-09-15T18:21:35.482Z,11.18
2022-09-15T18:24:40.619Z,11.14
2022-09-15T18:27:44.327Z,11.14
2022-09-15T18:30:50.700Z,11.11
2022-09-15T18:33:54.434Z,11.10
2022-09-15T18:36:59.853Z,11.08
2022-09-15T18:40:08.599Z,11.04
2022-09-15T18:43:12.196Z,11.01
2022-09-15T18:46:16.182Z,10.92
2022-09-15T18:49:19.751Z,10.89
2022-09-15T18:52:23.568Z,10.88
2022-09-15T18:55:28.926Z,10.85
2022-09-15T18:58:32.487Z,10.80
2022-09-15T19:01:36.203Z,10.75
2022-09-15T19:04:40.746Z,10.77
2022-09-15T19:07:45.601Z,10.74
2022-09-15T19:10:58.380Z,10.69
2022-09-15T19:14:02.442Z,10.72
2022-09-15T19:17:06.168Z,10.71
2022-09-15T19:20:13.247Z,10.66
2022-09-15T19:23:17.116Z,10.61
2022-09-15T19:26:22.645Z,10.59
2022-09-15T19:29:26.371Z,10.54
2022-09-15T19:32:30.287Z,10.50
2022-09-15T19:35:34.007Z,10.52
2022-09-15T19:38:38.323Z,10.47
2022-09-15T19:41:43.334Z,10.42
2022-09-15T19:44:47.883Z,10.42
2022-09-15T19:47:51.745Z,10.44
2022-09-15T19:50:55.474Z,10.45
2022-09-15T19:54:00.158Z,10.51
2022-09-15T19:57:05.687Z,10.50
2022-09-15T20:00:13.891Z,10.54
2022-09-15T20:03:17.406Z,10.52
2022-09-15T20:06:21.363Z,10.56
2022-09-15T20:09:24.984Z,10.56
2022-09-15T20:12:31.305Z,10.66
2022-09-15T20:15:34.892Z,10.74
2022-09-15T20:18:41.451Z,10.77
2022-09-15T20:21:51.349Z,10.75
2022-09-15T20:24:56.152Z,10.72
2022-09-15T20:28:01.015Z,10.74
2022-09-15T20:31:08.158Z,10.69
2022-09-15T20:34:11.827Z,10.67
2022-09-15T20:37:15.445Z,10.63
2022-09-15T20:40:19.192Z,10.60
2022-09-15T20:43:24.357Z,10.55
2022-09-15T20:46:29.163Z,10.52
2022-09-15T20:49:32.727Z,10.47
2022-09-15T20:52:38.490Z,10.48
2022-09-15T20:55:42.335Z,10.43
2022-09-15T20:58:47.299Z,10.40
2022-09-15T21:01:50.985Z,10.32
2022-09-15T21:04:55.405Z,10.28
2022-09-15T21:07:59.606Z,10.27
2022-09-15T21:11:05.214Z,10.25
2022-09-15T21:14:12.399Z,10.21
2022-09-15T21:17:16.575Z,10.19
2022-09-15T21:20:20.196Z,10.19
2022-09-15T21:23:23.970Z,10.20
2022-09-15T21:26:30.111Z,10.25
2022-09-15T21:29:35.171Z,10.29
2022-09-15T21:32:38.878Z,10.36
2022-09-15T21:35:42.401Z,10.44
2022-09-15T21:38:46.842Z,10.40
2022-09-15T21:41:50.822Z,10.39
2022-09-15T21:44:56.313Z,10.35
2022-09-15T21:47:59.943Z,10.29
2022-09-15T21:51:06.624Z,10.27
2022-09-15T21:54:11.119Z,10.21
2022-09-15T21:57:15.452Z,10.21
2022-09-15T22:00:20.567Z,10.20
2022-09-15T22:03:24.138Z,10.20
2022-09-15T22:06:32.093Z,10.21
2022-09-15T22:09:35.874Z,10.18
2022-09-15T22:12:39.421Z,10.20
2022-09-15T22:15:44.805Z,10.16
2022-09-15T22:18:49.023Z,10.11
2022-09-15T22:21:52.641Z,10.07
2022-09-15T22:24:56.157Z,10.02
2022-09-15T22:27:59.771Z,10.00
2022-09-15T22:31:09.224Z,10.00
2022-09-15T22:34:12.900Z,10.03
2022-09-15T22:37:16.430Z,10.05
2022-09-15T22:40:20.025Z,10.04
2022-09-15T22:43:23.762Z,10.13
2022-09-15T22:46:29.074Z,10.13
2022-09-15T22:49:32.645Z,10.13
2022-09-15T22:52:36.285Z,10.09
2022-09-15T22:55:39.995Z,10.05
2022-09-15T22:58:45.415Z,10.03
2022-09-15T23:01:50.440Z,9.96
2022-09-15T23:04:54.294Z,9.94
2022-09-15T23:07:57.907Z,9.90
2022-09-15T23:11:07.282Z,9.91
2022-09-15T23:14:16.444Z,9.89
2022-09-15T23:17:21.412Z,9.88
2022-09-15T23:20:25.148Z,9.89
2022-09-15T23:23:30.827Z,9.83
2022-09-15T23:26:34.595Z,9.83
2022-09-15T23:29:39.205Z,9.79
2022-09-15T23:32:44.320Z,9.77
2022-09-15T23:35:49.004Z,9.76
2022-09-15T23:38:52.526Z,9.73
2022-09-15T23:41:56.237Z,9.73
2022-09-15T23:44:59.781Z,9.72
2022-09-15T23:48:05.171Z,9.68
2022-09-15T23:51:08.932Z,9.68
2022-09-15T23:54:12.555Z,9.71
2022-09-15T23:57:16.084Z,9.74
